Terminal Aerodrome Forecast
Issued by NWS Cleveland, OH

Home | Current Version | Previous Version | Text Only | Print | Product List | Glossary Off
Versions: 1 2 3 4 5 6 7 8 9 10 11 12 13 14 15

000
FTUS41 KCLE 251131
TAFCAK
TAF
KCAK 251131Z 2512/2612 VRB03KT P6SM SCT250
     FM251500 24010KT P6SM SCT040 BKN150 PROB30 2605/2610 -TSRA
      BKN040CB
     FM261000 27005KT P6SM BKN019=

USA.gov is the U.S. government's official web portal to all federal, state and local government web resources and services.